sensor_id;sensor_type;location;lat;lon;timestamp;temperature;humidity
76384;SHT30;65204;48.606;7.598;2023-08-17T00:00:25;24.20;68.94
76384;SHT30;65204;48.606;7.598;2023-08-17T00:00:56;24.19;68.98
76384;SHT30;65204;48.606;7.598;2023-08-17T00:01:27;24.16;69.02
76384;SHT30;65204;48.606;7.598;2023-08-17T00:01:57;24.16;69.05
76384;SHT30;65204;48.606;7.598;2023-08-17T00:02:27;24.14;69.10
76384;SHT30;65204;48.606;7.598;2023-08-17T00:02:58;24.17;69.07
76384;SHT30;65204;48.606;7.598;2023-08-17T00:03:28;24.14;69.11
76384;SHT30;65204;48.606;7.598;2023-08-17T00:03:58;24.16;69.06
76384;SHT30;65204;48.606;7.598;2023-08-17T00:04:28;24.16;69.10
76384;SHT30;65204;48.606;7.598;2023-08-17T00:04:59;24.19;69.11
76384;SHT30;65204;48.606;7.598;2023-08-17T00:05:30;24.19;69.11
76384;SHT30;65204;48.606;7.598;2023-08-17T00:06:02;24.17;69.14
76384;SHT30;65204;48.606;7.598;2023-08-17T00:06:33;24.19;69.12
76384;SHT30;65204;48.606;7.598;2023-08-17T00:07:03;24.17;69.19
76384;SHT30;65204;48.606;7.598;2023-08-17T00:07:34;24.16;69.19
76384;SHT30;65204;48.606;7.598;2023-08-17T00:08:04;24.19;69.24
76384;SHT30;65204;48.606;7.598;2023-08-17T00:08:35;24.16;69.25
76384;SHT30;65204;48.606;7.598;2023-08-17T00:09:05;24.16;69.31
76384;SHT30;65204;48.606;7.598;2023-08-17T00:09:36;24.14;69.31
76384;SHT30;65204;48.606;7.598;2023-08-17T00:10:07;24.16;69.33
76384;SHT30;65204;48.606;7.598;2023-08-17T00:10:37;24.13;69.40
76384;SHT30;65204;48.606;7.598;2023-08-17T00:11:08;24.13;69.34
76384;SHT30;65204;48.606;7.598;2023-08-17T00:11:39;24.10;69.43
76384;SHT30;65204;48.606;7.598;2023-08-17T00:12:09;24.10;69.44
76384;SHT30;65204;48.606;7.598;2023-08-17T00:12:39;24.10;69.47
76384;SHT30;65204;48.606;7.598;2023-08-17T00:13:10;24.12;69.51
76384;SHT30;65204;48.606;7.598;2023-08-17T00:13:40;24.10;69.56
76384;SHT30;65204;48.606;7.598;2023-08-17T00:14:10;24.10;69.61
76384;SHT30;65204;48.606;7.598;2023-08-17T00:14:40;24.13;69.66
76384;SHT30;65204;48.606;7.598;2023-08-17T00:15:11;24.12;69.69
76384;SHT30;65204;48.606;7.598;2023-08-17T00:15:41;24.10;69.78
76384;SHT30;65204;48.606;7.598;2023-08-17T00:16:12;24.12;69.77
76384;SHT30;65204;48.606;7.598;2023-08-17T00:16:42;24.13;69.79
76384;SHT30;65204;48.606;7.598;2023-08-17T00:17:12;24.12;69.80
76384;SHT30;65204;48.606;7.598;2023-08-17T00:17:43;24.12;69.80
76384;SHT30;65204;48.606;7.598;2023-08-17T00:18:13;24.12;69.83
76384;SHT30;65204;48.606;7.598;2023-08-17T00:18:43;24.10;69.91
76384;SHT30;65204;48.606;7.598;2023-08-17T00:19:14;24.09;69.93
76384;SHT30;65204;48.606;7.598;2023-08-17T00:19:44;24.12;69.94
76384;SHT30;65204;48.606;7.598;2023-08-17T00:20:16;24.10;70.03
76384;SHT30;65204;48.606;7.598;2023-08-17T00:20:46;24.07;70.06
76384;SHT30;65204;48.606;7.598;2023-08-17T00:21:16;24.09;70.05
76384;SHT30;65204;48.606;7.598;2023-08-17T00:21:47;24.07;70.06
76384;SHT30;65204;48.606;7.598;2023-08-17T00:22:18;24.07;70.10
76384;SHT30;65204;48.606;7.598;2023-08-17T00:22:48;24.09;70.09
76384;SHT30;65204;48.606;7.598;2023-08-17T00:23:18;24.09;70.14
76384;SHT30;65204;48.606;7.598;2023-08-17T00:23:50;24.09;70.10
76384;SHT30;65204;48.606;7.598;2023-08-17T00:24:20;24.09;70.07
76384;SHT30;65204;48.606;7.598;2023-08-17T00:24:51;24.09;70.15
76384;SHT30;65204;48.606;7.598;2023-08-17T00:25:21;24.09;70.14
76384;SHT30;65204;48.606;7.598;2023-08-17T00:25:51;24.07;70.22
76384;SHT30;65204;48.606;7.598;2023-08-17T00:26:22;24.06;70.19
76384;SHT30;65204;48.606;7.598;2023-08-17T00:26:52;24.09;70.19
76384;SHT30;65204;48.606;7.598;2023-08-17T00:27:22;24.06;70.25
76384;SHT30;65204;48.606;7.598;2023-08-17T00:27:53;24.07;70.31
76384;SHT30;65204;48.606;7.598;2023-08-17T00:28:23;24.06;70.30
76384;SHT30;65204;48.606;7.598;2023-08-17T00:28:53;24.06;70.36
76384;SHT30;65204;48.606;7.598;2023-08-17T00:29:24;24.05;70.36
76384;SHT30;65204;48.606;7.598;2023-08-17T00:29:54;24.05;70.31
76384;SHT30;65204;48.606;7.598;2023-08-17T00:30:24;24.05;70.30
76384;SHT30;65204;48.606;7.598;2023-08-17T00:30:55;24.05;70.39
76384;SHT30;65204;48.606;7.598;2023-08-17T00:31:25;24.03;70.41
76384;SHT30;65204;48.606;7.598;2023-08-17T00:31:55;24.06;70.37
76384;SHT30;65204;48.606;7.598;2023-08-17T00:32:26;24.05;70.40
76384;SHT30;65204;48.606;7.598;2023-08-17T00:32:56;24.05;70.41
76384;SHT30;65204;48.606;7.598;2023-08-17T00:33:27;24.06;70.44
76384;SHT30;65204;48.606;7.598;2023-08-17T00:33:57;24.05;70.47
76384;SHT30;65204;48.606;7.598;2023-08-17T00:34:27;24.05;70.49
76384;SHT30;65204;48.606;7.598;2023-08-17T00:34:58;24.05;70.44
76384;SHT30;65204;48.606;7.598;2023-08-17T00:35:28;24.02;70.43
76384;SHT30;65204;48.606;7.598;2023-08-17T00:35:58;24.07;70.47
76384;SHT30;65204;48.606;7.598;2023-08-17T00:36:29;24.03;70.58
76384;SHT30;65204;48.606;7.598;2023-08-17T00:36:59;24.03;70.56
76384;SHT30;65204;48.606;7.598;2023-08-17T00:37:29;24.02;70.82
76384;SHT30;65204;48.606;7.598;2023-08-17T00:38:00;23.99;71.06
76384;SHT30;65204;48.606;7.598;2023-08-17T00:38:31;24.02;70.85
76384;SHT30;65204;48.606;7.598;2023-08-17T00:39:01;24.02;70.82
76384;SHT30;65204;48.606;7.598;2023-08-17T00:39:31;24.03;70.91
76384;SHT30;65204;48.606;7.598;2023-08-17T00:40:02;24.03;70.82
76384;SHT30;65204;48.606;7.598;2023-08-17T00:40:32;24.02;70.84
76384;SHT30;65204;48.606;7.598;2023-08-17T00:41:02;24.00;70.81
76384;SHT30;65204;48.606;7.598;2023-08-17T00:41:33;24.03;70.99
76384;SHT30;65204;48.606;7.598;2023-08-17T00:42:03;24.03;70.93
76384;SHT30;65204;48.606;7.598;2023-08-17T00:42:34;24.00;71.19
76384;SHT30;65204;48.606;7.598;2023-08-17T00:43:05;24.00;71.00
76384;SHT30;65204;48.606;7.598;2023-08-17T00:43:35;24.03;70.96
76384;SHT30;65204;48.606;7.598;2023-08-17T00:44:06;23.99;71.23
76384;SHT30;65204;48.606;7.598;2023-08-17T00:44:36;24.00;71.18
76384;SHT30;65204;48.606;7.598;2023-08-17T00:45:07;24.02;70.96
76384;SHT30;65204;48.606;7.598;2023-08-17T00:45:37;24.07;70.78
76384;SHT30;65204;48.606;7.598;2023-08-17T00:46:07;24.06;70.82
76384;SHT30;65204;48.606;7.598;2023-08-17T00:46:38;24.09;70.68
76384;SHT30;65204;48.606;7.598;2023-08-17T00:47:09;24.07;70.64
76384;SHT30;65204;48.606;7.598;2023-08-17T00:47:41;24.03;70.86
76384;SHT30;65204;48.606;7.598;2023-08-17T00:48:11;24.03;70.77
76384;SHT30;65204;48.606;7.598;2023-08-17T00:48:42;24.06;70.69
76384;SHT30;65204;48.606;7.598;2023-08-17T00:49:13;24.07;70.55
76384;SHT30;65204;48.606;7.598;2023-08-17T00:49:43;24.06;70.56
76384;SHT30;65204;48.606;7.598;2023-08-17T00:50:14;24.05;70.53
76384;SHT30;65204;48.606;7.598;2023-08-17T00:50:47;24.02;70.61
76384;SHT30;65204;48.606;7.598;2023-08-17T00:51:18;24.03;70.68
76384;SHT30;65204;48.606;7.598;2023-08-17T00:51:51;24.02;70.73
76384;SHT30;65204;48.606;7.598;2023-08-17T00:52:23;24.00;70.74
76384;SHT30;65204;48.606;7.598;2023-08-17T00:52:54;24.02;70.72
76384;SHT30;65204;48.606;7.598;2023-08-17T00:53:27;23.96;70.93
76384;SHT30;65204;48.606;7.598;2023-08-17T00:54:00;23.96;70.79
76384;SHT30;65204;48.606;7.598;2023-08-17T00:54:31;23.97;70.74
76384;SHT30;65204;48.606;7.598;2023-08-17T00:55:02;23.89;70.91
76384;SHT30;65204;48.606;7.598;2023-08-17T00:55:33;23.87;70.96
76384;SHT30;65204;48.606;7.598;2023-08-17T00:56:04;23.89;70.96
76384;SHT30;65204;48.606;7.598;2023-08-17T00:56:35;23.87;70.84
76384;SHT30;65204;48.606;7.598;2023-08-17T00:57:08;23.86;70.97
76384;SHT30;65204;48.606;7.598;2023-08-17T00:57:40;23.86;70.88
76384;SHT30;65204;48.606;7.598;2023-08-17T00:58:11;23.89;70.90
76384;SHT30;65204;48.606;7.598;2023-08-17T00:58:43;23.90;70.89
76384;SHT30;65204;48.606;7.598;2023-08-17T00:59:13;23.83;71.00
76384;SHT30;65204;48.606;7.598;2023-08-17T00:59:43;23.82;70.87
76384;SHT30;65204;48.606;7.598;2023-08-17T01:00:14;23.86;70.85
76384;SHT30;65204;48.606;7.598;2023-08-17T01:00:45;23.85;70.85
76384;SHT30;65204;48.606;7.598;2023-08-17T01:01:16;23.85;70.83
76384;SHT30;65204;48.606;7.598;2023-08-17T01:01:47;23.82;70.79
76384;SHT30;65204;48.606;7.598;2023-08-17T01:02:17;23.85;70.82
76384;SHT30;65204;48.606;7.598;2023-08-17T01:02:48;23.89;70.67
76384;SHT30;65204;48.606;7.598;2023-08-17T01:03:20;23.89;70.66
76384;SHT30;65204;48.606;7.598;2023-08-17T01:03:52;23.87;70.67
76384;SHT30;65204;48.606;7.598;2023-08-17T01:04:22;23.86;70.66
76384;SHT30;65204;48.606;7.598;2023-08-17T01:04:53;23.85;70.67
76384;SHT30;65204;48.606;7.598;2023-08-17T01:05:23;23.85;70.70
76384;SHT30;65204;48.606;7.598;2023-08-17T01:05:54;23.83;70.64
76384;SHT30;65204;48.606;7.598;2023-08-17T01:06:24;23.85;70.70
76384;SHT30;65204;48.606;7.598;2023-08-17T01:06:55;23.85;70.60
76384;SHT30;65204;48.606;7.598;2023-08-17T01:07:25;23.85;70.58
76384;SHT30;65204;48.606;7.598;2023-08-17T01:07:56;23.86;70.51
76384;SHT30;65204;48.606;7.598;2023-08-17T01:08:26;23.85;70.52
76384;SHT30;65204;48.606;7.598;2023-08-17T01:08:56;23.87;70.47
76384;SHT30;65204;48.606;7.598;2023-08-17T01:09:27;23.85;70.48
76384;SHT30;65204;48.606;7.598;2023-08-17T01:09:58;23.83;70.62
76384;SHT30;65204;48.606;7.598;2023-08-17T01:10:57;23.79;70.62
76384;SHT30;65204;48.606;7.598;2023-08-17T01:11:34;23.76;70.65
76384;SHT30;65204;48.606;7.598;2023-08-17T01:12:22;23.72;70.74
76384;SHT30;65204;48.606;7.598;2023-08-17T01:13:07;23.68;70.83
76384;SHT30;65204;48.606;7.598;2023-08-17T01:14:04;23.63;70.87
76384;SHT30;65204;48.606;7.598;2023-08-17T01:15:18;23.59;70.97
76384;SHT30;65204;48.606;7.598;2023-08-17T01:15:56;23.62;70.98
76384;SHT30;65204;48.606;7.598;2023-08-17T01:16:37;23.61;70.93
76384;SHT30;65204;48.606;7.598;2023-08-17T01:17:22;23.62;70.89
76384;SHT30;65204;48.606;7.598;2023-08-17T01:18:03;23.63;70.78
76384;SHT30;65204;48.606;7.598;2023-08-17T01:18:35;23.61;70.91
76384;SHT30;65204;48.606;7.598;2023-08-17T01:19:08;23.62;70.84
76384;SHT30;65204;48.606;7.598;2023-08-17T01:19:40;23.61;70.83
76384;SHT30;65204;48.606;7.598;2023-08-17T01:20:13;23.62;70.86
76384;SHT30;65204;48.606;7.598;2023-08-17T01:20:46;23.62;70.89
76384;SHT30;65204;48.606;7.598;2023-08-17T01:21:17;23.62;70.87
76384;SHT30;65204;48.606;7.598;2023-08-17T01:21:51;23.58;70.88
76384;SHT30;65204;48.606;7.598;2023-08-17T01:22:26;23.61;70.82
76384;SHT30;65204;48.606;7.598;2023-08-17T01:23:11;23.62;70.75
76384;SHT30;65204;48.606;7.598;2023-08-17T01:23:44;23.61;70.84
76384;SHT30;65204;48.606;7.598;2023-08-17T01:24:15;23.59;70.80
76384;SHT30;65204;48.606;7.598;2023-08-17T01:24:45;23.61;70.79
76384;SHT30;65204;48.606;7.598;2023-08-17T01:25:16;23.59;70.72
76384;SHT30;65204;48.606;7.598;2023-08-17T01:25:46;23.59;70.71
76384;SHT30;65204;48.606;7.598;2023-08-17T01:26:16;23.62;70.66
76384;SHT30;65204;48.606;7.598;2023-08-17T01:26:47;23.62;70.65
76384;SHT30;65204;48.606;7.598;2023-08-17T01:27:17;23.61;70.59
76384;SHT30;65204;48.606;7.598;2023-08-17T01:27:47;23.61;70.61
76384;SHT30;65204;48.606;7.598;2023-08-17T01:28:18;23.61;70.67
76384;SHT30;65204;48.606;7.598;2023-08-17T01:28:48;23.58;70.70
76384;SHT30;65204;48.606;7.598;2023-08-17T01:29:19;23.61;70.70
76384;SHT30;65204;48.606;7.598;2023-08-17T01:29:50;23.59;70.70
76384;SHT30;65204;48.606;7.598;2023-08-17T01:30:21;23.61;70.62
76384;SHT30;65204;48.606;7.598;2023-08-17T01:30:57;23.61;70.56
76384;SHT30;65204;48.606;7.598;2023-08-17T01:31:36;23.58;70.68
76384;SHT30;65204;48.606;7.598;2023-08-17T01:32:17;23.58;70.69
76384;SHT30;65204;48.606;7.598;2023-08-17T01:32:54;23.56;70.64
76384;SHT30;65204;48.606;7.598;2023-08-17T01:33:36;23.55;70.64
76384;SHT30;65204;48.606;7.598;2023-08-17T01:34:10;23.54;70.74
76384;SHT30;65204;48.606;7.598;2023-08-17T01:34:49;23.54;70.65
76384;SHT30;65204;48.606;7.598;2023-08-17T01:35:28;23.55;70.65
76384;SHT30;65204;48.606;7.598;2023-08-17T01:36:11;23.55;70.64
76384;SHT30;65204;48.606;7.598;2023-08-17T01:36:46;23.52;70.69
76384;SHT30;65204;48.606;7.598;2023-08-17T01:37:21;23.49;70.76
76384;SHT30;65204;48.606;7.598;2023-08-17T01:37:55;23.48;70.72
76384;SHT30;65204;48.606;7.598;2023-08-17T01:38:29;23.51;70.69
76384;SHT30;65204;48.606;7.598;2023-08-17T01:39:00;23.51;70.65
76384;SHT30;65204;48.606;7.598;2023-08-17T01:39:35;23.48;70.58
76384;SHT30;65204;48.606;7.598;2023-08-17T01:40:08;23.51;70.70
76384;SHT30;65204;48.606;7.598;2023-08-17T01:40:40;23.51;70.61
76384;SHT30;65204;48.606;7.598;2023-08-17T01:41:12;23.51;70.62
76384;SHT30;65204;48.606;7.598;2023-08-17T01:41:47;23.51;70.64
76384;SHT30;65204;48.606;7.598;2023-08-17T01:42:18;23.48;70.70
76384;SHT30;65204;48.606;7.598;2023-08-17T01:42:50;23.46;70.68
76384;SHT30;65204;48.606;7.598;2023-08-17T01:43:21;23.46;70.69
76384;SHT30;65204;48.606;7.598;2023-08-17T01:43:52;23.48;70.68
76384;SHT30;65204;48.606;7.598;2023-08-17T01:44:24;23.45;70.67
76384;SHT30;65204;48.606;7.598;2023-08-17T01:44:56;23.46;70.66
76384;SHT30;65204;48.606;7.598;2023-08-17T01:45:26;23.49;70.60
76384;SHT30;65204;48.606;7.598;2023-08-17T01:45:56;23.48;70.59
76384;SHT30;65204;48.606;7.598;2023-08-17T01:46:31;23.49;70.53
76384;SHT30;65204;48.606;7.598;2023-08-17T01:47:05;23.45;70.64
76384;SHT30;65204;48.606;7.598;2023-08-17T01:47:35;23.46;70.61
76384;SHT30;65204;48.606;7.598;2023-08-17T01:48:06;23.45;70.61
76384;SHT30;65204;48.606;7.598;2023-08-17T01:48:36;23.45;70.60
76384;SHT30;65204;48.606;7.598;2023-08-17T01:49:06;23.45;70.62
76384;SHT30;65204;48.606;7.598;2023-08-17T01:49:37;23.46;70.64
76384;SHT30;65204;48.606;7.598;2023-08-17T01:50:07;23.44;70.66
76384;SHT30;65204;48.606;7.598;2023-08-17T01:50:38;23.44;70.61
76384;SHT30;65204;48.606;7.598;2023-08-17T01:51:10;23.45;70.58
76384;SHT30;65204;48.606;7.598;2023-08-17T01:51:40;23.45;70.57
76384;SHT30;65204;48.606;7.598;2023-08-17T01:52:11;23.48;70.56
76384;SHT30;65204;48.606;7.598;2023-08-17T01:52:41;23.46;70.51
76384;SHT30;65204;48.606;7.598;2023-08-17T01:53:11;23.45;70.54
76384;SHT30;65204;48.606;7.598;2023-08-17T01:53:42;23.48;70.56
76384;SHT30;65204;48.606;7.598;2023-08-17T01:54:12;23.45;70.57
76384;SHT30;65204;48.606;7.598;2023-08-17T01:54:42;23.44;70.57
76384;SHT30;65204;48.606;7.598;2023-08-17T01:55:13;23.44;70.53
76384;SHT30;65204;48.606;7.598;2023-08-17T01:55:43;23.44;70.48
76384;SHT30;65204;48.606;7.598;2023-08-17T01:56:13;23.45;70.53
76384;SHT30;65204;48.606;7.598;2023-08-17T01:56:44;23.45;70.56
76384;SHT30;65204;48.606;7.598;2023-08-17T01:57:14;23.45;70.54
76384;SHT30;65204;48.606;7.598;2023-08-17T01:57:45;23.44;70.54
76384;SHT30;65204;48.606;7.598;2023-08-17T01:58:15;23.46;70.51
76384;SHT30;65204;48.606;7.598;2023-08-17T01:58:45;23.45;70.50
76384;SHT30;65204;48.606;7.598;2023-08-17T01:59:16;23.41;70.56
76384;SHT30;65204;48.606;7.598;2023-08-17T01:59:46;23.44;70.57
76384;SHT30;65204;48.606;7.598;2023-08-17T02:00:16;23.44;70.59
76384;SHT30;65204;48.606;7.598;2023-08-17T02:00:46;23.41;70.59
76384;SHT30;65204;48.606;7.598;2023-08-17T02:01:17;23.42;70.58
76384;SHT30;65204;48.606;7.598;2023-08-17T02:01:47;23.41;70.61
76384;SHT30;65204;48.606;7.598;2023-08-17T02:02:17;23.41;70.61
76384;SHT30;65204;48.606;7.598;2023-08-17T02:02:48;23.42;70.62
76384;SHT30;65204;48.606;7.598;2023-08-17T02:03:18;23.38;70.61
76384;SHT30;65204;48.606;7.598;2023-08-17T02:03:49;23.39;70.62
76384;SHT30;65204;48.606;7.598;2023-08-17T02:04:19;23.39;70.61
76384;SHT30;65204;48.606;7.598;2023-08-17T02:04:49;23.41;70.63
76384;SHT30;65204;48.606;7.598;2023-08-17T02:05:20;23.39;70.67
76384;SHT30;65204;48.606;7.598;2023-08-17T02:05:50;23.38;70.67
76384;SHT30;65204;48.606;7.598;2023-08-17T02:06:20;23.37;70.68
76384;SHT30;65204;48.606;7.598;2023-08-17T02:06:51;23.37;70.68
76384;SHT30;65204;48.606;7.598;2023-08-17T02:07:21;23.37;70.69
76384;SHT30;65204;48.606;7.598;2023-08-17T02:07:51;23.35;70.74
76384;SHT30;65204;48.606;7.598;2023-08-17T02:08:22;23.34;70.76
76384;SHT30;65204;48.606;7.598;2023-08-17T02:08:52;23.34;70.78
76384;SHT30;65204;48.606;7.598;2023-08-17T02:09:22;23.37;70.75
76384;SHT30;65204;48.606;7.598;2023-08-17T02:09:53;23.34;70.76
76384;SHT30;65204;48.606;7.598;2023-08-17T02:10:23;23.35;70.69
76384;SHT30;65204;48.606;7.598;2023-08-17T02:10:53;23.35;70.69
76384;SHT30;65204;48.606;7.598;2023-08-17T02:11:24;23.39;70.64
76384;SHT30;65204;48.606;7.598;2023-08-17T02:11:54;23.35;70.64
76384;SHT30;65204;48.606;7.598;2023-08-17T02:12:24;23.37;70.68
76384;SHT30;65204;48.606;7.598;2023-08-17T02:12:55;23.37;70.60
76384;SHT30;65204;48.606;7.598;2023-08-17T02:13:25;23.35;70.68
76384;SHT30;65204;48.606;7.598;2023-08-17T02:13:57;23.35;70.67
76384;SHT30;65204;48.606;7.598;2023-08-17T02:14:27;23.35;70.69
76384;SHT30;65204;48.606;7.598;2023-08-17T02:14:58;23.34;70.72
76384;SHT30;65204;48.606;7.598;2023-08-17T02:15:28;23.35;70.74
76384;SHT30;65204;48.606;7.598;2023-08-17T02:15:58;23.34;70.72
76384;SHT30;65204;48.606;7.598;2023-08-17T02:16:29;23.32;70.76
76384;SHT30;65204;48.606;7.598;2023-08-17T02:16:59;23.34;70.78
76384;SHT30;65204;48.606;7.598;2023-08-17T02:17:29;23.35;70.80
76384;SHT30;65204;48.606;7.598;2023-08-17T02:18:00;23.32;70.79
76384;SHT30;65204;48.606;7.598;2023-08-17T02:18:31;23.31;70.81
76384;SHT30;65204;48.606;7.598;2023-08-17T02:19:03;23.31;70.79
76384;SHT30;65204;48.606;7.598;2023-08-17T02:19:33;23.32;70.79
76384;SHT30;65204;48.606;7.598;2023-08-17T02:20:04;23.31;70.81
76384;SHT30;65204;48.606;7.598;2023-08-17T02:20:35;23.31;70.79
76384;SHT30;65204;48.606;7.598;2023-08-17T02:21:05;23.29;70.83
76384;SHT30;65204;48.606;7.598;2023-08-17T02:21:35;23.28;70.84
76384;SHT30;65204;48.606;7.598;2023-08-17T02:22:06;23.31;70.84
76384;SHT30;65204;48.606;7.598;2023-08-17T02:22:36;23.28;70.89
76384;SHT30;65204;48.606;7.598;2023-08-17T02:23:06;23.25;70.93
76384;SHT30;65204;48.606;7.598;2023-08-17T02:23:37;23.28;70.93
76384;SHT30;65204;48.606;7.598;2023-08-17T02:24:07;23.26;70.97
76384;SHT30;65204;48.606;7.598;2023-08-17T02:24:37;23.25;70.93
76384;SHT30;65204;48.606;7.598;2023-08-17T02:25:08;23.25;70.93
76384;SHT30;65204;48.606;7.598;2023-08-17T02:25:39;23.26;70.96
76384;SHT30;65204;48.606;7.598;2023-08-17T02:26:10;23.26;70.97
76384;SHT30;65204;48.606;7.598;2023-08-17T02:26:40;23.25;70.98
76384;SHT30;65204;48.606;7.598;2023-08-17T02:27:11;23.25;71.00
76384;SHT30;65204;48.606;7.598;2023-08-17T02:27:41;23.25;70.99
76384;SHT30;65204;48.606;7.598;2023-08-17T02:28:11;23.25;70.95
76384;SHT30;65204;48.606;7.598;2023-08-17T02:28:42;23.25;70.97
76384;SHT30;65204;48.606;7.598;2023-08-17T02:29:12;23.25;70.98
76384;SHT30;65204;48.606;7.598;2023-08-17T02:29:42;23.22;71.02
76384;SHT30;65204;48.606;7.598;2023-08-17T02:30:13;23.25;71.05
76384;SHT30;65204;48.606;7.598;2023-08-17T02:30:43;23.24;71.04
76384;SHT30;65204;48.606;7.598;2023-08-17T02:31:14;23.24;71.06
76384;SHT30;65204;48.606;7.598;2023-08-17T02:31:44;23.22;71.03
76384;SHT30;65204;48.606;7.598;2023-08-17T02:32:14;23.22;71.06
76384;SHT30;65204;48.606;7.598;2023-08-17T02:32:45;23.24;71.05
76384;SHT30;65204;48.606;7.598;2023-08-17T02:33:15;23.22;71.04
76384;SHT30;65204;48.606;7.598;2023-08-17T02:33:45;23.25;71.02
76384;SHT30;65204;48.606;7.598;2023-08-17T02:34:16;23.24;71.06
76384;SHT30;65204;48.606;7.598;2023-08-17T02:34:46;23.19;71.02
76384;SHT30;65204;48.606;7.598;2023-08-17T02:35:16;23.21;71.02
76384;SHT30;65204;48.606;7.598;2023-08-17T02:35:50;23.22;71.07
76384;SHT30;65204;48.606;7.598;2023-08-17T02:36:20;23.19;71.07
76384;SHT30;65204;48.606;7.598;2023-08-17T02:36:50;23.19;71.12
76384;SHT30;65204;48.606;7.598;2023-08-17T02:37:21;23.18;71.18
76384;SHT30;65204;48.606;7.598;2023-08-17T02:37:51;23.18;71.12
76384;SHT30;65204;48.606;7.598;2023-08-17T02:38:22;23.19;71.14
76384;SHT30;65204;48.606;7.598;2023-08-17T02:38:52;23.19;71.06
76384;SHT30;65204;48.606;7.598;2023-08-17T02:39:23;23.21;71.09
76384;SHT30;65204;48.606;7.598;2023-08-17T02:39:54;23.21;71.08
76384;SHT30;65204;48.606;7.598;2023-08-17T02:40:24;23.19;71.06
76384;SHT30;65204;48.606;7.598;2023-08-17T02:40:55;23.19;71.01
76384;SHT30;65204;48.606;7.598;2023-08-17T02:41:25;23.19;71.04
76384;SHT30;65204;48.606;7.598;2023-08-17T02:41:55;23.21;71.06
76384;SHT30;65204;48.606;7.598;2023-08-17T02:42:25;23.19;71.01
76384;SHT30;65204;48.606;7.598;2023-08-17T02:42:56;23.19;71.05
76384;SHT30;65204;48.606;7.598;2023-08-17T02:43:26;23.21;71.01
76384;SHT30;65204;48.606;7.598;2023-08-17T02:43:57;23.19;71.02
76384;SHT30;65204;48.606;7.598;2023-08-17T02:44:27;23.18;71.06
76384;SHT30;65204;48.606;7.598;2023-08-17T02:44:58;23.15;71.11
76384;SHT30;65204;48.606;7.598;2023-08-17T02:45:28;23.18;71.10
76384;SHT30;65204;48.606;7.598;2023-08-17T02:45:59;23.15;71.12
76384;SHT30;65204;48.606;7.598;2023-08-17T02:46:29;23.15;71.06
76384;SHT30;65204;48.606;7.598;2023-08-17T02:47:00;23.14;71.07
76384;SHT30;65204;48.606;7.598;2023-08-17T02:47:30;23.14;71.12
76384;SHT30;65204;48.606;7.598;2023-08-17T02:48:00;23.15;71.07
76384;SHT30;65204;48.606;7.598;2023-08-17T02:48:31;23.12;71.05
76384;SHT30;65204;48.606;7.598;2023-08-17T02:49:01;23.14;71.10
76384;SHT30;65204;48.606;7.598;2023-08-17T02:49:32;23.12;71.11
76384;SHT30;65204;48.606;7.598;2023-08-17T02:50:02;23.12;71.12
76384;SHT30;65204;48.606;7.598;2023-08-17T02:50:32;23.12;71.12
76384;SHT30;65204;48.606;7.598;2023-08-17T02:51:03;23.11;71.16
76384;SHT30;65204;48.606;7.598;2023-08-17T02:51:33;23.14;71.10
76384;SHT30;65204;48.606;7.598;2023-08-17T02:52:04;23.14;71.15
76384;SHT30;65204;48.606;7.598;2023-08-17T02:52:34;23.11;71.14
76384;SHT30;65204;48.606;7.598;2023-08-17T02:53:04;23.11;71.11
76384;SHT30;65204;48.606;7.598;2023-08-17T02:53:35;23.12;71.11
76384;SHT30;65204;48.606;7.598;2023-08-17T02:54:05;23.14;71.11
76384;SHT30;65204;48.606;7.598;2023-08-17T02:54:35;23.11;71.07
76384;SHT30;65204;48.606;7.598;2023-08-17T02:55:06;23.12;71.08
76384;SHT30;65204;48.606;7.598;2023-08-17T02:55:36;23.12;71.09
76384;SHT30;65204;48.606;7.598;2023-08-17T02:56:07;23.11;71.09
76384;SHT30;65204;48.606;7.598;2023-08-17T02:56:40;23.11;71.13
76384;SHT30;65204;48.606;7.598;2023-08-17T02:57:11;23.10;71.11
76384;SHT30;65204;48.606;7.598;2023-08-17T02:57:41;23.08;71.13
76384;SHT30;65204;48.606;7.598;2023-08-17T02:58:12;23.11;71.12
76384;SHT30;65204;48.606;7.598;2023-08-17T02:58:42;23.08;71.13
76384;SHT30;65204;48.606;7.598;2023-08-17T02:59:13;23.08;71.13
76384;SHT30;65204;48.606;7.598;2023-08-17T02:59:43;23.07;71.15
76384;SHT30;65204;48.606;7.598;2023-08-17T03:00:14;23.08;71.17
76384;SHT30;65204;48.606;7.598;2023-08-17T03:00:44;23.08;71.16
76384;SHT30;65204;48.606;7.598;2023-08-17T03:01:14;23.07;71.18
76384;SHT30;65204;48.606;7.598;2023-08-17T03:01:45;23.07;71.17
76384;SHT30;65204;48.606;7.598;2023-08-17T03:02:15;23.08;71.18
76384;SHT30;65204;48.606;7.598;2023-08-17T03:02:46;23.08;71.11
76384;SHT30;65204;48.606;7.598;2023-08-17T03:03:16;23.07;71.13
76384;SHT30;65204;48.606;7.598;2023-08-17T03:03:46;23.07;71.16
76384;SHT30;65204;48.606;7.598;2023-08-17T03:04:17;23.04;71.13
76384;SHT30;65204;48.606;7.598;2023-08-17T03:04:47;23.05;71.11
76384;SHT30;65204;48.606;7.598;2023-08-17T03:05:17;23.04;71.10
76384;SHT30;65204;48.606;7.598;2023-08-17T03:05:48;23.04;71.11
76384;SHT30;65204;48.606;7.598;2023-08-17T03:06:18;23.04;71.12
76384;SHT30;65204;48.606;7.598;2023-08-17T03:06:48;23.07;71.13
76384;SHT30;65204;48.606;7.598;2023-08-17T03:07:19;23.04;71.10
76384;SHT30;65204;48.606;7.598;2023-08-17T03:07:49;23.04;71.08
76384;SHT30;65204;48.606;7.598;2023-08-17T03:08:19;23.07;71.10
76384;SHT30;65204;48.606;7.598;2023-08-17T03:08:50;23.03;71.13
76384;SHT30;65204;48.606;7.598;2023-08-17T03:09:22;23.04;71.06
76384;SHT30;65204;48.606;7.598;2023-08-17T03:09:52;23.04;71.05
76384;SHT30;65204;48.606;7.598;2023-08-17T03:10:23;23.04;71.02
76384;SHT30;65204;48.606;7.598;2023-08-17T03:10:55;23.04;71.07
76384;SHT30;65204;48.606;7.598;2023-08-17T03:11:25;23.04;71.07
76384;SHT30;65204;48.606;7.598;2023-08-17T03:11:56;23.05;71.05
76384;SHT30;65204;48.606;7.598;2023-08-17T03:12:26;23.04;70.98
76384;SHT30;65204;48.606;7.598;2023-08-17T03:12:56;23.01;71.02
76384;SHT30;65204;48.606;7.598;2023-08-17T03:13:27;23.04;71.00
76384;SHT30;65204;48.606;7.598;2023-08-17T03:13:57;23.04;71.04
76384;SHT30;65204;48.606;7.598;2023-08-17T03:14:30;23.04;71.00
76384;SHT30;65204;48.606;7.598;2023-08-17T03:15:00;23.03;71.00
76384;SHT30;65204;48.606;7.598;2023-08-17T03:15:30;23.01;71.00
76384;SHT30;65204;48.606;7.598;2023-08-17T03:16:01;23.03;71.05
76384;SHT30;65204;48.606;7.598;2023-08-17T03:16:31;23.03;71.03
76384;SHT30;65204;48.606;7.598;2023-08-17T03:17:01;23.03;70.99
76384;SHT30;65204;48.606;7.598;2023-08-17T03:17:32;23.01;70.97
76384;SHT30;65204;48.606;7.598;2023-08-17T03:18:02;23.00;71.01
76384;SHT30;65204;48.606;7.598;2023-08-17T03:18:33;22.97;71.00